Terminal Aerodrome Forecast
Issued by NWS Jackson, MS

Home | Current Version | Previous Version | Text Only | Print | Product List | Glossary On
Versions: 1 2 3 4 5 6 7 8 9 10 11 12
142
FTUS44 KJAN 172322
TAFMEI
TAF
KMEI 172322Z 1800/1824 16006KT P6SM FEW250
     FM181100 20008KT P6SM BKN015 BKN250
     FM181500 21014G23KT P6SM BKN025 BKN250
     FM181800 22015G24KT P6SM SCT025 BKN050=

USA.gov is the U.S. government's official web portal to all federal, state and local government web resources and services.